Time;durP1;ratioP1;P1;durP2;ratioP2;P2;SDS_P1;SDS_P2;PMS_P1;PMS_P2;Temp;Humidity;BMP_temperature;BMP_pressure;BME280_temperature;BME280_humidity;BME280_pressure;Samples;Min_cycle;Max_cycle;Signal;HPM_P1;HPM_P2
2022/08/30 00:02:19;;;;;;;3.30;3.00;;;24.70;99.90;;;;;;10532255;28;20306;-84
2022/08/30 00:07:22;;;;;;;2.92;2.60;;;24.70;99.90;;;;;;10533764;28;20259;-84
2022/08/30 00:12:25;;;;;;;3.08;2.78;;;24.70;99.90;;;;;;10535373;28;20278;-84
2022/08/30 00:17:27;;;;;;;2.97;2.70;;;24.70;99.90;;;;;;10561333;28;20229;-84
2022/08/30 00:22:31;;;;;;;3.10;2.90;;;24.50;99.90;;;;;;10551105;28;20253;-84
2022/08/30 00:27:34;;;;;;;2.83;2.63;;;24.40;99.90;;;;;;10567271;28;20332;-84
2022/08/30 00:32:37;;;;;;;3.05;2.80;;;24.60;99.90;;;;;;10580443;28;20236;-83
2022/08/30 00:37:39;;;;;;;3.53;3.15;;;24.50;99.90;;;;;;10563936;28;20595;-84
2022/08/30 00:42:43;;;;;;;2.92;2.63;;;24.40;99.90;;;;;;10551772;28;20261;-84
2022/08/30 00:47:52;;;;;;;3.20;2.90;;;24.50;99.90;;;;;;10540643;28;20255;-84
2022/08/30 00:52:59;;;;;;;3.25;2.95;;;24.50;99.90;;;;;;10544923;28;20229;-85
2022/08/30 00:58:05;;;;;;;2.70;2.50;;;24.20;99.90;;;;;;10546960;28;20221;-84
2022/08/30 01:03:08;;;;;;;2.90;2.70;;;24.50;99.90;;;;;;10581089;28;20244;-84
2022/08/30 01:08:11;;;;;;;2.53;2.33;;;24.50;99.90;;;;;;10539464;28;20194;-84
2022/08/30 01:13:14;;;;;;;2.83;2.63;;;24.40;99.90;;;;;;10547464;28;20208;-83
2022/08/30 01:18:17;;;;;;;3.45;3.10;;;24.50;99.90;;;;;;10579604;28;20201;-84
2022/08/30 01:23:25;;;;;;;3.17;2.88;;;24.50;99.90;;;;;;10538112;28;20310;-84
2022/08/30 01:28:29;;;;;;;2.60;2.40;;;24.50;99.90;;;;;;10527813;28;20202;-84
2022/08/30 01:33:32;;;;;;;2.67;2.47;;;24.40;99.90;;;;;;10537373;28;20237;-83
2022/08/30 01:38:48;;;;;;;3.17;2.67;;;24.40;99.90;;;;;;10562483;28;20262;-83
2022/08/30 01:43:54;;;;;;;2.85;2.65;;;24.40;99.90;;;;;;10546347;27;20274;-84
2022/08/30 01:48:57;;;;;;;2.78;2.47;;;24.30;99.90;;;;;;10520724;28;20235;-84
2022/08/30 01:54:00;;;;;;;2.88;2.67;;;24.40;99.90;;;;;;10538027;28;20205;-84
2022/08/30 01:59:02;;;;;;;3.33;2.92;;;24.40;99.90;;;;;;10536850;28;20225;-84
2022/08/30 02:04:07;;;;;;;3.08;2.72;;;24.40;99.90;;;;;;10546870;28;20240;-84
2022/08/30 02:09:11;;;;;;;4.10;2.97;;;24.40;99.90;;;;;;10578994;28;20231;-84
2022/08/30 02:14:14;;;;;;;2.58;2.38;;;24.40;99.90;;;;;;10579892;28;20621;-84
2022/08/30 02:19:16;;;;;;;2.30;2.10;;;24.40;99.90;;;;;;10577744;28;20240;-84
2022/08/30 02:24:19;;;;;;;2.75;2.55;;;24.30;99.90;;;;;;10578934;28;20294;-84
2022/08/30 02:29:23;;;;;;;2.90;2.70;;;24.20;99.90;;;;;;10579355;28;20254;-84
2022/08/30 02:34:25;;;;;;;2.72;2.53;;;24.30;99.90;;;;;;10558459;28;20233;-84
2022/08/30 02:39:28;;;;;;;2.50;2.30;;;24.20;99.90;;;;;;10555712;28;20229;-84
2022/08/30 02:44:30;;;;;;;2.88;2.50;;;24.20;99.90;;;;;;10578611;28;20256;-83
2022/08/30 02:49:33;;;;;;;2.65;2.45;;;24.10;99.90;;;;;;10557147;28;20759;-83
2022/08/30 02:54:35;;;;;;;2.38;2.17;;;24.20;99.90;;;;;;10577895;27;20205;-84
2022/08/30 02:59:42;;;;;;;3.05;2.85;;;24.20;99.90;;;;;;10565232;28;20259;-84
2022/08/30 03:04:45;;;;;;;2.85;2.42;;;24.20;99.90;;;;;;10539445;28;20197;-84
2022/08/30 03:09:47;;;;;;;2.70;2.47;;;24.20;99.90;;;;;;10576633;28;20218;-84
2022/08/30 03:14:50;;;;;;;2.45;2.25;;;24.20;99.90;;;;;;10559232;28;20624;-84
2022/08/30 03:19:53;;;;;;;2.90;2.63;;;24.20;99.90;;;;;;10535602;28;20225;-84
2022/08/30 03:24:58;;;;;;;2.30;2.10;;;24.10;99.90;;;;;;10535149;28;20198;-84
2022/08/30 03:30:00;;;;;;;2.67;2.47;;;24.10;99.90;;;;;;10557876;28;20205;-84
2022/08/30 03:35:04;;;;;;;2.40;2.20;;;24.10;99.90;;;;;;10533917;28;20255;-84
2022/08/30 03:40:08;;;;;;;2.42;2.00;;;24.10;99.90;;;;;;10533805;28;20255;-83
2022/08/30 03:45:13;;;;;;;2.35;2.00;;;24.00;99.90;;;;;;10537158;28;20239;-83
2022/08/30 03:50:15;;;;;;;2.50;2.30;;;24.00;99.90;;;;;;10572751;28;20205;-83
2022/08/30 03:55:18;;;;;;;2.58;2.38;;;24.10;99.90;;;;;;10534287;28;20229;-83
2022/08/30 04:00:21;;;;;;;2.25;2.05;;;24.00;99.90;;;;;;10537535;28;20240;-84
2022/08/30 04:05:23;;;;;;;2.72;2.53;;;24.00;99.90;;;;;;10533503;28;20255;-84
2022/08/30 04:10:26;;;;;;;2.03;1.88;;;24.00;99.90;;;;;;10534483;28;20236;-84
2022/08/30 04:15:29;;;;;;;2.75;2.55;;;24.00;99.90;;;;;;10537423;28;20286;-86
2022/08/30 04:20:31;;;;;;;2.30;2.10;;;24.00;99.90;;;;;;10533783;28;20686;-83
2022/08/30 04:25:35;;;;;;;2.33;2.13;;;24.00;99.90;;;;;;10533117;28;20229;-83
2022/08/30 04:30:42;;;;;;;2.35;2.15;;;23.90;99.90;;;;;;10547276;28;20193;-83
2022/08/30 04:35:47;;;;;;;2.33;2.13;;;23.90;99.90;;;;;;10558487;28;20256;-84
2022/08/30 04:40:49;;;;;;;1.95;1.70;;;23.90;99.90;;;;;;10552254;28;20283;-84
2022/08/30 04:45:53;;;;;;;1.60;1.50;;;23.80;99.90;;;;;;10559135;28;20668;-84
2022/08/30 04:50:56;;;;;;;2.20;2.00;;;23.80;99.90;;;;;;10544559;28;20305;-84
2022/08/30 04:55:58;;;;;;;1.98;1.70;;;23.80;99.90;;;;;;10551824;28;20617;-84
2022/08/30 05:01:01;;;;;;;1.90;1.80;;;23.90;99.90;;;;;;10556557;28;20237;-84
2022/08/30 05:06:04;;;;;;;2.30;2.10;;;23.90;99.90;;;;;;10557959;28;20624;-85
2022/08/30 05:11:08;;;;;;;2.72;2.10;;;23.90;99.90;;;;;;10562404;28;20228;-85
2022/08/30 05:16:16;;;;;;;2.67;1.95;;;23.70;99.90;;;;;;10579820;28;20217;-85
2022/08/30 05:21:21;;;;;;;2.75;2.55;;;23.90;99.90;;;;;;10579188;28;20244;-84
2022/08/30 05:26:30;;;;;;;2.20;2.00;;;23.60;99.90;;;;;;10581749;28;20192;-85
2022/08/30 05:31:34;;;;;;;2.28;2.08;;;23.60;99.90;;;;;;10585077;27;20225;-85
2022/08/30 05:36:38;;;;;;;2.10;1.95;;;23.70;99.90;;;;;;10536715;28;20614;-85
2022/08/30 05:41:40;;;;;;;2.15;1.95;;;23.60;99.90;;;;;;10537496;28;20245;-85
2022/08/30 05:46:45;;;;;;;2.35;1.85;;;23.70;99.90;;;;;;10536513;28;20491;-85
2022/08/30 05:51:48;;;;;;;2.50;2.30;;;23.40;99.90;;;;;;10541572;28;20261;-84
2022/08/30 05:56:50;;;;;;;5.65;2.25;;;23.00;99.90;;;;;;10573176;28;20197;-85
2022/08/30 06:01:56;;;;;;;1.88;1.77;;;23.50;99.90;;;;;;10578756;27;20228;-85
2022/08/30 06:06:59;;;;;;;1.90;1.80;;;23.00;99.90;;;;;;10576325;28;20622;-85
2022/08/30 06:12:02;;;;;;;2.55;1.83;;;23.40;99.90;;;;;;10578445;28;20234;-85
2022/08/30 06:17:05;;;;;;;4.40;1.77;;;23.40;99.90;;;;;;10577986;27;20209;-85
2022/08/30 06:22:08;;;;;;;1.70;1.60;;;23.10;99.90;;;;;;10578128;28;20249;-85
2022/08/30 06:27:10;;;;;;;3.08;1.92;;;23.50;99.90;;;;;;10568116;28;20325;-85
2022/08/30 06:32:12;;;;;;;3.67;1.70;;;23.10;99.90;;;;;;10540840;28;20274;-85
2022/08/30 06:37:15;;;;;;;1.77;1.67;;;22.70;99.90;;;;;;10555712;28;20232;-85
2022/08/30 06:42:32;;;;;;;1.95;1.70;;;23.50;99.90;;;;;;10540170;28;20701;-85
2022/08/30 06:47:35;;;;;;;2.40;2.20;;;22.60;99.90;;;;;;10534954;28;20219;-87
2022/08/30 06:52:39;;;;;;;1.65;1.55;;;22.60;99.90;;;;;;10534249;28;20213;-85
2022/08/30 06:57:43;;;;;;;2.38;1.83;;;23.60;99.90;;;;;;10534409;28;20633;-85
2022/08/30 07:02:45;;;;;;;1.77;1.55;;;23.70;99.90;;;;;;10545470;28;20338;-83
2022/08/30 07:07:49;;;;;;;2.17;1.48;;;24.00;99.90;;;;;;10534319;28;20263;-83
2022/08/30 07:12:51;;;;;;;2.45;1.98;;;24.00;99.90;;;;;;10545632;28;20237;-83
2022/08/30 07:23:15;;;;;;;1.85;1.65;;;24.10;99.90;;;;;;10553103;28;20610;-83
2022/08/30 07:28:17;;;;;;;1.50;1.40;;;23.90;99.90;;;;;;10553039;28;20679;-83
2022/08/30 07:33:20;;;;;;;2.05;1.70;;;24.00;99.90;;;;;;10566694;28;20689;-83
2022/08/30 07:38:22;;;;;;;1.55;1.45;;;24.00;99.90;;;;;;10562587;28;20330;-82
2022/08/30 07:43:25;;;;;;;2.25;1.92;;;23.90;99.90;;;;;;10533012;28;20244;-82
2022/08/30 07:48:27;;;;;;;1.45;1.35;;;23.80;99.90;;;;;;10533339;28;20259;-82
2022/08/30 07:53:30;;;;;;;1.73;1.63;;;24.20;99.90;;;;;;10531680;28;20242;-81
2022/08/30 07:58:34;;;;;;;1.80;1.70;;;24.30;99.90;;;;;;10532187;28;20210;-84
2022/08/30 08:03:39;;;;;;;1.52;1.38;;;24.50;99.90;;;;;;10532262;28;20262;-81
2022/08/30 08:08:44;;;;;;;1.95;1.70;;;24.20;99.90;;;;;;10532820;28;20606;-83
2022/08/30 08:13:48;;;;;;;1.63;1.52;;;24.20;99.90;;;;;;10532550;28;20229;-82
2022/08/30 08:18:56;;;;;;;2.45;1.20;;;24.50;99.90;;;;;;10534681;28;20242;-82
2022/08/30 08:23:58;;;;;;;2.30;1.65;;;23.90;99.90;;;;;;10565556;28;20289;-83
2022/08/30 08:29:01;;;;;;;1.40;1.30;;;23.80;99.90;;;;;;10572208;28;20254;-84
2022/08/30 08:34:04;;;;;;;1.58;1.42;;;24.40;99.90;;;;;;10559444;28;20308;-85
2022/08/30 08:39:08;;;;;;;1.88;1.65;;;24.40;99.90;;;;;;10583468;28;20193;-85
2022/08/30 08:44:52;;;;;;;2.75;1.67;;;24.40;99.90;;;;;;10580298;28;20333;-83
2022/08/30 08:50:01;;;;;;;2.42;1.55;;;24.40;99.90;;;;;;10533599;28;20913;-84
2022/08/30 08:55:11;;;;;;;1.65;1.55;;;24.30;99.90;;;;;;10540432;28;20286;-85
2022/08/30 09:00:14;;;;;;;1.77;1.67;;;24.50;99.90;;;;;;10541073;28;20202;-84
2022/08/30 09:05:19;;;;;;;1.55;1.40;;;24.60;99.90;;;;;;10539402;28;20279;-81
2022/08/30 09:10:23;;;;;;;2.17;1.67;;;24.70;99.90;;;;;;10539656;28;20233;-83
2022/08/30 09:15:46;;;;;;;1.50;1.20;;;24.20;99.90;;;;;;10555547;28;20289;-84
2022/08/30 09:21:05;;;;;;;1.67;1.58;;;24.50;99.90;;;;;;10542920;28;20301;-84
2022/08/30 09:26:08;;;;;;;0.88;0.70;;;24.20;99.90;;;;;;10564681;28;20261;-83
2022/08/30 09:31:21;;;;;;;1.90;1.60;;;24.20;99.90;;;;;;10550363;28;20232;-83
2022/08/30 09:36:27;;;;;;;1.58;1.48;;;24.40;99.90;;;;;;10575523;28;20256;-82
2022/08/30 09:41:41;;;;;;;1.73;1.27;;;24.00;99.90;;;;;;10541889;28;20225;-83
2022/08/30 09:46:51;;;;;;;1.95;1.25;;;24.40;99.90;;;;;;10539790;28;20221;-83
2022/08/30 09:52:16;;;;;;;1.60;1.50;;;24.20;99.90;;;;;;10569411;28;20282;-83
2022/08/30 09:57:43;;;;;;;1.75;1.10;;;24.20;99.90;;;;;;10556899;28;20244;-83
2022/08/30 10:03:16;;;;;;;1.15;1.08;;;24.20;99.90;;;;;;10555513;28;20248;-84
2022/08/30 10:09:06;;;;;;;1.42;1.33;;;24.50;99.90;;;;;;10556947;28;20254;-83
2022/08/30 10:14:49;;;;;;;1.92;1.55;;;23.80;99.90;;;;;;10550941;28;20259;-84
2022/08/30 10:19:52;;;;;;;1.63;1.42;;;24.20;99.90;;;;;;10559370;28;20237;-83
2022/08/30 10:25:10;;;;;;;1.42;1.33;;;24.40;99.90;;;;;;10554999;28;20256;-83
2022/08/30 10:30:17;;;;;;;1.55;1.45;;;24.70;99.90;;;;;;10538143;28;20233;-82
2022/08/30 10:35:21;;;;;;;1.35;1.20;;;24.70;99.90;;;;;;10535091;28;20261;-82
2022/08/30 10:46:01;;;;;;;2.85;0.98;;;24.20;99.90;;;;;;10534599;28;20257;-83
2022/08/30 10:51:10;;;;;;;1.13;0.82;;;24.20;99.90;;;;;;10535293;28;20280;-82
2022/08/30 10:56:20;;;;;;;1.88;1.25;;;24.40;99.90;;;;;;10532824;28;20246;-82
2022/08/30 11:01:24;;;;;;;1.40;1.30;;;24.50;99.90;;;;;;10533133;28;20661;-83
2022/08/30 11:06:57;;;;;;;1.42;1.33;;;24.70;99.90;;;;;;10538325;28;20256;-83
2022/08/30 11:12:16;;;;;;;1.27;1.17;;;24.70;99.90;;;;;;10534775;28;20206;-82
2022/08/30 11:17:35;;;;;;;1.88;1.30;;;24.50;99.90;;;;;;10534092;28;20241;-83
2022/08/30 11:22:38;;;;;;;1.92;1.25;;;24.30;99.90;;;;;;10533651;28;20241;-82
2022/08/30 11:27:57;;;;;;;2.22;1.35;;;23.80;99.90;;;;;;10532991;28;20233;-83
2022/08/30 11:33:09;;;;;;;1.55;1.45;;;24.00;99.90;;;;;;10533848;28;20259;-82
2022/08/30 11:38:25;;;;;;;1.17;1.08;;;24.10;99.90;;;;;;10532177;28;20298;-81
2022/08/30 11:43:35;;;;;;;1.10;0.80;;;23.90;99.90;;;;;;10532373;28;20253;-82
2022/08/30 11:48:50;;;;;;;6.05;1.38;;;23.70;99.90;;;;;;10553637;28;20266;-81
2022/08/30 11:53:57;;;;;;;1.10;1.10;;;22.70;99.90;;;;;;10531904;28;20282;-81
2022/08/30 11:59:03;;;;;;;1.08;0.60;;;23.70;99.90;;;;;;10531657;28;21028;-82
2022/08/30 12:04:23;;;;;;;1.38;1.20;;;23.80;99.90;;;;;;10532007;28;20310;-82
2022/08/30 12:09:25;;;;;;;2.00;1.10;;;23.90;99.90;;;;;;10536644;28;20221;-82
2022/08/30 12:14:40;;;;;;;1.23;1.13;;;23.50;99.90;;;;;;10543141;28;20260;-83
2022/08/30 12:19:46;;;;;;;1.63;1.50;;;23.50;99.90;;;;;;10563363;28;20245;-83
2022/08/30 12:24:53;;;;;;;1.52;1.42;;;23.90;99.90;;;;;;10539512;28;20309;-82
2022/08/30 12:30:07;;;;;;;2.45;1.08;;;24.00;99.90;;;;;;10555329;28;20233;-81
2022/08/30 12:35:20;;;;;;;1.13;1.02;;;23.50;99.90;;;;;;10539881;28;20642;-81
2022/08/30 12:40:25;;;;;;;2.13;1.50;;;23.70;99.90;;;;;;10571679;28;20593;-82
2022/08/30 12:45:32;;;;;;;1.40;1.30;;;24.20;99.90;;;;;;10575904;28;20244;-81
2022/08/30 12:50:53;;;;;;;1.20;1.08;;;24.20;99.90;;;;;;10539870;28;20222;-82
2022/08/30 12:55:58;;;;;;;1.73;1.50;;;24.20;99.90;;;;;;10553381;27;20788;-82
2022/08/30 13:01:26;;;;;;;0.93;0.90;;;24.20;99.90;;;;;;10564223;28;20229;-82
2022/08/30 13:06:48;;;;;;;1.67;1.02;;;24.20;99.90;;;;;;10538369;28;20708;-82
2022/08/30 13:11:50;;;;;;;0.93;0.63;;;23.20;99.90;;;;;;10546467;28;20758;-81
2022/08/30 13:17:24;;;;;;;1.23;0.60;;;20.80;99.90;;;;;;10574403;28;20680;-80
2022/08/30 13:22:29;;;;;;;0.70;0.43;;;;;;;;;;10187220;27;10000164;-81
2022/08/30 13:27:33;;;;;;;7.20;0.70;;;20.10;99.90;;;;;;10534742;28;20685;-83
2022/08/30 13:32:38;;;;;;;0.57;0.43;;;19.90;99.90;;;;;;10539549;28;20279;-82
2022/08/30 13:37:41;;;;;;;2.05;0.70;;;20.00;99.90;;;;;;10538189;28;20318;-81
2022/08/30 13:42:52;;;;;;;1.45;0.75;;;20.00;99.90;;;;;;10533023;28;20245;-81
2022/08/30 13:47:54;;;;;;;1.38;0.70;;;21.40;99.90;;;;;;10533641;28;20225;-83
2022/08/30 13:52:57;;;;;;;1.85;0.50;;;20.50;99.90;;;;;;10547494;28;20742;-82
2022/08/30 13:57:59;;;;;;;1.40;0.88;;;20.50;99.90;;;;;;10577157;28;20695;-83
2022/08/30 14:03:02;;;;;;;0.70;0.70;;;20.30;99.90;;;;;;10564356;28;20245;-83
2022/08/30 14:08:07;;;;;;;4.00;0.70;;;20.10;99.90;;;;;;10545825;28;20233;-83
2022/08/30 14:13:30;;;;;;;2.53;0.70;;;20.20;99.90;;;;;;10549960;28;20220;-83
2022/08/30 14:18:33;;;;;;;4.25;0.77;;;20.30;99.90;;;;;;10549754;27;20925;-82
2022/08/30 14:23:35;;;;;;;1.17;0.98;;;20.10;99.90;;;;;;10617291;27;20277;-83
2022/08/30 14:28:38;;;;;;;1.33;0.57;;;21.40;99.90;;;;;;10565260;27;20229;-82
2022/08/30 14:33:41;;;;;;;1.25;0.70;;;20.50;99.90;;;;;;10554318;28;20260;-83
2022/08/30 14:38:44;;;;;;;5.07;1.63;;;21.10;99.90;;;;;;10551804;28;20294;-82
2022/08/30 14:43:48;;;;;;;0.43;0.43;;;22.20;99.90;;;;;;10562971;28;20249;-82
2022/08/30 14:48:52;;;;;;;0.82;0.43;;;22.90;99.90;;;;;;10538208;28;20262;-82
2022/08/30 14:53:54;;;;;;;1.65;0.50;;;23.20;99.90;;;;;;10545297;28;20244;-83
2022/08/30 14:58:59;;;;;;;1.98;0.75;;;23.40;99.90;;;;;;10574510;27;20213;-82
2022/08/30 15:04:02;;;;;;;0.73;0.45;;;23.60;99.90;;;;;;10574102;28;20256;-82
2022/08/30 15:09:11;;;;;;;2.38;0.70;;;23.80;99.90;;;;;;10574810;28;20273;-81
2022/08/30 15:14:14;;;;;;;1.15;0.60;;;23.90;99.90;;;;;;10559279;27;20224;-82
2022/08/30 15:19:17;;;;;;;0.50;0.50;;;24.00;99.90;;;;;;10563027;27;20255;-82
2022/08/30 15:24:22;;;;;;;1.60;0.60;;;24.10;99.90;;;;;;10560967;28;20639;-82
2022/08/30 15:29:31;;;;;;;1.80;0.70;;;23.90;99.90;;;;;;10575370;27;20265;-82
2022/08/30 15:34:33;;;;;;;1.85;0.70;;;22.50;99.90;;;;;;10558827;28;20306;-82
2022/08/30 15:39:36;;;;;;;0.70;0.45;;;22.10;99.90;;;;;;10575963;28;20236;-82
2022/08/30 15:44:42;;;;;;;1.95;0.70;;;23.10;99.90;;;;;;10576126;28;20271;-84
2022/08/30 15:49:44;;;;;;;4.53;0.70;;;22.90;99.90;;;;;;10570006;28;20229;-81
2022/08/30 15:54:46;;;;;;;0.70;0.60;;;22.30;99.90;;;;;;10572343;28;20289;-82
2022/08/30 15:59:50;;;;;;;1.55;0.80;;;22.90;99.90;;;;;;10552972;28;20248;-82
2022/08/30 16:04:53;;;;;;;1.15;0.60;;;22.10;99.90;;;;;;10555971;28;20301;-82
2022/08/30 16:09:55;;;;;;;1.60;0.70;;;22.30;99.90;;;;;;10556891;28;20196;-80
2022/08/30 16:14:59;;;;;;;2.03;0.40;;;22.40;99.90;;;;;;10554802;28;20255;-82
2022/08/30 16:20:02;;;;;;;1.15;0.55;;;23.50;99.90;;;;;;10570996;28;20336;-83
2022/08/30 16:25:06;;;;;;;0.77;0.50;;;23.60;99.90;;;;;;10570845;28;21064;-82
2022/08/30 16:30:11;;;;;;;3.83;0.82;;;23.20;99.90;;;;;;10532651;28;20202;-82
2022/08/30 16:35:14;;;;;;;4.28;0.80;;;23.30;99.90;;;;;;10538086;28;20260;-82
2022/08/30 16:40:16;;;;;;;2.67;0.70;;;23.20;99.90;;;;;;10542822;28;20202;-81
2022/08/30 16:45:19;;;;;;;8.75;1.00;;;23.10;99.90;;;;;;10548925;28;20265;-82
2022/08/30 16:50:22;;;;;;;4.03;0.98;;;23.00;99.90;;;;;;10554318;28;20594;-83
2022/08/30 16:55:25;;;;;;;1.75;0.88;;;23.00;99.90;;;;;;10560259;28;20277;-82
2022/08/30 17:00:27;;;;;;;3.78;0.98;;;22.90;99.90;;;;;;10557470;27;20665;-82
2022/08/30 17:05:30;;;;;;;3.38;1.25;;;22.90;99.90;;;;;;10543178;28;20640;-82
2022/08/30 17:10:33;;;;;;;6.05;1.10;;;22.70;99.90;;;;;;10551474;28;20259;-82
2022/08/30 17:15:36;;;;;;;8.25;2.20;;;22.50;99.90;;;;;;10538419;28;20241;-82
2022/08/30 17:20:41;;;;;;;4.25;1.88;;;22.30;99.90;;;;;;10542394;28;20221;-82
2022/08/30 17:25:45;;;;;;;2.25;1.55;;;22.20;99.90;;;;;;10538779;28;20303;-81
2022/08/30 17:30:48;;;;;;;1.90;1.50;;;22.80;99.90;;;;;;10556614;28;20217;-82
2022/08/30 17:35:53;;;;;;;2.25;1.73;;;23.10;99.90;;;;;;10209716;27;10000231;-82
2022/08/30 17:41:04;;;;;;;2.03;1.10;;;23.30;99.90;;;;;;10554330;28;20217;-82
2022/08/30 17:46:10;;;;;;;2.50;1.65;;;23.40;99.90;;;;;;10542175;28;20301;-82
2022/08/30 17:51:13;;;;;;;2.53;1.67;;;23.50;99.90;;;;;;10550943;28;20233;-82
2022/08/30 17:56:16;;;;;;;3.45;1.10;;;23.50;99.90;;;;;;10549965;28;20294;-82
2022/08/30 18:01:19;;;;;;;4.53;1.35;;;23.60;99.90;;;;;;10541575;27;20233;-84
2022/08/30 18:06:22;;;;;;;2.17;1.40;;;23.60;99.90;;;;;;10550711;27;20849;-81
2022/08/30 18:11:27;;;;;;;4.85;1.33;;;22.50;99.90;;;;;;10544444;28;20762;-82
2022/08/30 18:16:35;;;;;;;2.20;1.35;;;23.40;99.90;;;;;;10532846;27;20241;-83
2022/08/30 18:21:38;;;;;;;2.25;1.27;;;23.50;99.90;;;;;;10544070;28;20634;-83
2022/08/30 18:26:40;;;;;;;4.47;1.60;;;23.60;99.90;;;;;;10558206;28;20308;-82
2022/08/30 18:31:44;;;;;;;1.80;1.50;;;23.60;99.90;;;;;;10539998;28;20225;-83
2022/08/30 18:36:46;;;;;;;3.28;1.30;;;23.70;99.90;;;;;;10544234;28;20286;-82
2022/08/30 18:41:50;;;;;;;1.52;1.38;;;23.70;99.90;;;;;;10535900;28;20205;-83
2022/08/30 18:46:57;;;;;;;1.75;1.33;;;23.70;99.90;;;;;;10542082;28;20244;-82
2022/08/30 18:52:05;;;;;;;1.98;1.60;;;23.70;99.90;;;;;;10564566;28;20209;-83
2022/08/30 18:57:21;;;;;;;2.13;1.35;;;22.00;99.90;;;;;;10557711;28;20210;-84
2022/08/30 19:02:55;;;;;;;2.40;1.17;;;23.40;99.90;;;;;;10559455;28;20197;-83
2022/08/30 19:08:04;;;;;;;2.00;1.30;;;23.60;99.90;;;;;;10561042;28;20248;-82
2022/08/30 19:13:07;;;;;;;3.00;1.42;;;23.70;99.90;;;;;;10529383;28;20232;-82
2022/08/30 19:18:10;;;;;;;2.55;1.52;;;20.40;99.90;;;;;;10542907;28;20229;-81
2022/08/30 19:23:19;;;;;;;1.77;1.40;;;22.00;99.90;;;;;;10558548;28;20236;-82
2022/08/30 19:29:04;;;;;;;1.60;1.10;;;23.20;99.90;;;;;;10576433;27;20255;-82
2022/08/30 19:34:11;;;;;;;1.42;1.13;;;23.50;99.90;;;;;;10477864;28;20315;-83
2022/08/30 19:39:15;;;;;;;1.75;0.93;;;23.70;99.90;;;;;;10465333;28;20697;-82
2022/08/30 19:44:18;;;;;;;2.25;1.00;;;23.70;99.90;;;;;;10465564;28;20254;-83
2022/08/30 19:49:21;;;;;;;1.80;1.15;;;23.80;99.90;;;;;;10486810;28;20359;-83
2022/08/30 19:54:24;;;;;;;2.75;1.20;;;23.90;99.90;;;;;;10466762;28;20242;-83
2022/08/30 19:59:27;;;;;;;2.50;1.13;;;23.90;99.90;;;;;;10486329;28;20271;-84
2022/08/30 20:04:32;;;;;;;0.98;0.90;;;24.00;99.90;;;;;;10436185;28;20447;-83
2022/08/30 20:09:35;;;;;;;1.20;1.10;;;24.00;99.90;;;;;;10528468;28;20262;-84
2022/08/30 20:14:37;;;;;;;1.65;1.30;;;24.00;99.90;;;;;;10533264;28;20229;-83
2022/08/30 20:19:42;;;;;;;1.95;1.25;;;24.00;99.90;;;;;;10569868;28;20299;-83
2022/08/30 20:24:44;;;;;;;1.05;0.90;;;24.10;99.90;;;;;;10534409;28;20295;-84
2022/08/30 20:29:47;;;;;;;1.20;1.10;;;24.10;99.90;;;;;;10566578;28;20234;-84
2022/08/30 20:34:53;;;;;;;1.02;0.98;;;24.10;99.90;;;;;;10543325;28;20229;-84
2022/08/30 20:39:56;;;;;;;1.92;1.17;;;24.10;99.90;;;;;;10549627;28;20236;-83
2022/08/30 20:44:59;;;;;;;1.25;1.15;;;24.10;99.90;;;;;;10554493;28;20261;-84
2022/08/30 20:50:05;;;;;;;1.23;1.13;;;24.10;99.90;;;;;;10544208;28;20223;-83
2022/08/30 20:55:16;;;;;;;1.15;0.95;;;24.10;99.90;;;;;;10580013;28;20223;-82
2022/08/30 21:00:18;;;;;;;3.17;1.35;;;22.00;99.90;;;;;;10563927;28;20308;-82
2022/08/30 21:05:21;;;;;;;1.10;1.00;;;23.50;99.90;;;;;;10562606;28;20270;-82
2022/08/30 21:10:24;;;;;;;1.40;1.20;;;24.00;99.90;;;;;;10543427;28;20243;-82
2022/08/30 21:15:26;;;;;;;1.45;1.23;;;24.10;99.90;;;;;;10542860;28;20259;-82
2022/08/30 21:20:39;;;;;;;1.98;0.90;;;24.10;99.90;;;;;;10546123;28;20209;-82
2022/08/30 21:25:42;;;;;;;1.00;0.90;;;24.20;99.90;;;;;;10541279;28;20218;-82
2022/08/30 21:30:45;;;;;;;2.08;1.20;;;24.20;99.90;;;;;;10549191;28;20225;-82
2022/08/30 21:41:08;;;;;;;1.50;1.27;;;24.30;99.90;;;;;;10564309;28;20216;-83
2022/08/30 21:46:12;;;;;;;0.85;0.82;;;24.20;99.90;;;;;;10543700;28;20766;-83
2022/08/30 21:51:14;;;;;;;1.30;0.93;;;24.20;99.90;;;;;;10561995;28;20278;-82
2022/08/30 21:56:20;;;;;;;1.15;1.00;;;24.20;99.90;;;;;;10569194;28;20209;-82
2022/08/30 22:01:29;;;;;;;1.65;0.80;;;24.10;99.90;;;;;;10565322;28;20663;-83
2022/08/30 22:06:35;;;;;;;1.10;0.90;;;23.80;99.90;;;;;;10555634;28;20241;-85
2022/08/30 22:11:41;;;;;;;0.98;0.88;;;23.70;99.90;;;;;;10560004;28;20201;-82
2022/08/30 22:16:44;;;;;;;1.35;1.23;;;23.60;99.90;;;;;;10554767;28;20221;-82
2022/08/30 22:21:47;;;;;;;1.45;1.10;;;23.50;99.90;;;;;;10548831;28;20289;-82
2022/08/30 22:26:50;;;;;;;2.25;1.08;;;23.40;99.90;;;;;;10560826;28;20682;-83
2022/08/30 22:31:53;;;;;;;2.05;0.98;;;;;;;;;;10563673;28;20201;-83
2022/08/30 22:36:55;;;;;;;2.07;1.57;;;14.80;99.90;;;;;;10538778;28;20233;-83
2022/08/30 22:41:58;;;;;;;3.47;1.10;;;15.00;99.90;;;;;;10540846;28;20198;-83
2022/08/30 22:47:01;;;;;;;1.45;1.02;;;20.20;99.90;;;;;;10537185;28;20249;-83
2022/08/30 22:52:04;;;;;;;1.00;0.90;;;21.90;99.90;;;;;;10535232;28;20282;-83
2022/08/30 22:57:06;;;;;;;2.47;1.25;;;22.60;99.90;;;;;;10577176;28;20575;-83
2022/08/30 23:02:09;;;;;;;1.00;0.90;;;22.90;99.90;;;;;;10522303;28;20202;-83
2022/08/30 23:07:12;;;;;;;2.50;1.15;;;23.20;99.90;;;;;;10534635;28;20249;-84
2022/08/30 23:12:14;;;;;;;1.95;1.27;;;23.30;99.90;;;;;;10536681;28;20546;-83
2022/08/30 23:17:17;;;;;;;1.80;1.00;;;23.40;99.90;;;;;;10534984;28;20611;-83
2022/08/30 23:22:19;;;;;;;4.60;1.33;;;23.40;99.90;;;;;;10542614;28;20209;-83
